sensor_id;sensor_type;location;lat;lon;timestamp;P1;durP1;ratioP1;P2;durP2;ratioP2
64959;SDS011;51487;52.266;10.542;2022-12-29T00:00:00;3.83;;;1.90;;
64959;SDS011;51487;52.266;10.542;2022-12-29T00:02:25;4.70;;;2.25;;
64959;SDS011;51487;52.266;10.542;2022-12-29T00:04:51;4.22;;;2.40;;
64959;SDS011;51487;52.266;10.542;2022-12-29T00:07:17;3.65;;;2.38;;
64959;SDS011;51487;52.266;10.542;2022-12-29T00:09:43;5.82;;;2.47;;
64959;SDS011;51487;52.266;10.542;2022-12-29T00:12:09;3.53;;;2.15;;
64959;SDS011;51487;52.266;10.542;2022-12-29T00:14:34;5.03;;;2.58;;
64959;SDS011;51487;52.266;10.542;2022-12-29T00:17:19;2.45;;;1.90;;
64959;SDS011;51487;52.266;10.542;2022-12-29T00:19:44;2.80;;;2.03;;
64959;SDS011;51487;52.266;10.542;2022-12-29T00:22:28;3.80;;;2.45;;
64959;SDS011;51487;52.266;10.542;2022-12-29T00:25:13;4.38;;;2.38;;
64959;SDS011;51487;52.266;10.542;2022-12-29T00:27:58;4.85;;;2.47;;
64959;SDS011;51487;52.266;10.542;2022-12-29T00:30:42;7.22;;;3.50;;
64959;SDS011;51487;52.266;10.542;2022-12-29T00:33:31;5.18;;;3.35;;
64959;SDS011;51487;52.266;10.542;2022-12-29T00:36:21;8.65;;;3.80;;
64959;SDS011;51487;52.266;10.542;2022-12-29T00:39:00;7.38;;;3.03;;
64959;SDS011;51487;52.266;10.542;2022-12-29T00:41:54;6.00;;;2.58;;
64959;SDS011;51487;52.266;10.542;2022-12-29T00:44:38;6.15;;;2.50;;
64959;SDS011;51487;52.266;10.542;2022-12-29T00:47:03;6.32;;;2.70;;
64959;SDS011;51487;52.266;10.542;2022-12-29T00:49:29;5.45;;;2.90;;
64959;SDS011;51487;52.266;10.542;2022-12-29T00:51:59;6.43;;;2.63;;
64959;SDS011;51487;52.266;10.542;2022-12-29T00:54:32;4.88;;;2.42;;
64959;SDS011;51487;52.266;10.542;2022-12-29T00:57:00;4.72;;;2.40;;
64959;SDS011;51487;52.266;10.542;2022-12-29T00:59:27;5.18;;;2.78;;
64959;SDS011;51487;52.266;10.542;2022-12-29T01:01:53;4.95;;;2.60;;
64959;SDS011;51487;52.266;10.542;2022-12-29T01:04:20;4.47;;;2.60;;
64959;SDS011;51487;52.266;10.542;2022-12-29T01:06:47;5.82;;;2.97;;
64959;SDS011;51487;52.266;10.542;2022-12-29T01:09:14;7.97;;;2.88;;
64959;SDS011;51487;52.266;10.542;2022-12-29T01:11:59;6.53;;;2.80;;
64959;SDS011;51487;52.266;10.542;2022-12-29T01:14:25;5.00;;;2.70;;
64959;SDS011;51487;52.266;10.542;2022-12-29T01:16:51;4.22;;;2.67;;
64959;SDS011;51487;52.266;10.542;2022-12-29T01:19:18;6.28;;;2.90;;
64959;SDS011;51487;52.266;10.542;2022-12-29T01:21:45;5.07;;;2.83;;
64959;SDS011;51487;52.266;10.542;2022-12-29T01:24:11;6.60;;;2.97;;
64959;SDS011;51487;52.266;10.542;2022-12-29T01:26:38;5.43;;;2.78;;
64959;SDS011;51487;52.266;10.542;2022-12-29T01:29:03;5.75;;;2.67;;
64959;SDS011;51487;52.266;10.542;2022-12-29T01:31:29;5.38;;;2.70;;
64959;SDS011;51487;52.266;10.542;2022-12-29T01:33:54;2.80;;;2.30;;
64959;SDS011;51487;52.266;10.542;2022-12-29T01:36:20;3.35;;;2.10;;
64959;SDS011;51487;52.266;10.542;2022-12-29T01:38:46;3.00;;;2.10;;
64959;SDS011;51487;52.266;10.542;2022-12-29T01:41:13;3.67;;;2.58;;
64959;SDS011;51487;52.266;10.542;2022-12-29T01:46:22;3.67;;;2.10;;
64959;SDS011;51487;52.266;10.542;2022-12-29T01:51:23;1.88;;;1.63;;
64959;SDS011;51487;52.266;10.542;2022-12-29T01:53:53;1.75;;;1.52;;
64959;SDS011;51487;52.266;10.542;2022-12-29T01:56:23;1.70;;;1.60;;
64959;SDS011;51487;52.266;10.542;2022-12-29T01:58:53;2.40;;;1.70;;
64959;SDS011;51487;52.266;10.542;2022-12-29T02:01:27;2.88;;;1.80;;
64959;SDS011;51487;52.266;10.542;2022-12-29T02:03:53;1.65;;;1.52;;
64959;SDS011;51487;52.266;10.542;2022-12-29T02:06:23;2.22;;;1.77;;
64959;SDS011;51487;52.266;10.542;2022-12-29T02:08:56;3.72;;;1.80;;
64959;SDS011;51487;52.266;10.542;2022-12-29T02:11:24;2.00;;;1.60;;
64959;SDS011;51487;52.266;10.542;2022-12-29T02:13:52;3.15;;;1.95;;
64959;SDS011;51487;52.266;10.542;2022-12-29T02:21:58;1.85;;;1.50;;
64959;SDS011;51487;52.266;10.542;2022-12-29T02:24:46;2.10;;;1.60;;
64959;SDS011;51487;52.266;10.542;2022-12-29T02:46:56;1.75;;;1.55;;
64959;SDS011;51487;52.266;10.542;2022-12-29T02:52:25;2.45;;;1.52;;
64959;SDS011;51487;52.266;10.542;2022-12-29T02:54:59;2.45;;;1.80;;
64959;SDS011;51487;52.266;10.542;2022-12-29T03:00:13;1.90;;;1.67;;
64959;SDS011;51487;52.266;10.542;2022-12-29T03:05:57;3.05;;;1.92;;
64959;SDS011;51487;52.266;10.542;2022-12-29T03:11:45;1.83;;;1.63;;
64959;SDS011;51487;52.266;10.542;2022-12-29T03:14:33;2.15;;;1.80;;
64959;SDS011;51487;52.266;10.542;2022-12-29T03:17:42;2.85;;;1.60;;
64959;SDS011;51487;52.266;10.542;2022-12-29T03:20:26;1.83;;;1.67;;
64959;SDS011;51487;52.266;10.542;2022-12-29T03:23:10;2.67;;;1.67;;
64959;SDS011;51487;52.266;10.542;2022-12-29T03:25:39;1.52;;;1.42;;
64959;SDS011;51487;52.266;10.542;2022-12-29T03:28:17;2.63;;;1.60;;
64959;SDS011;51487;52.266;10.542;2022-12-29T03:30:48;3.78;;;1.60;;
64959;SDS011;51487;52.266;10.542;2022-12-29T03:33:14;1.70;;;1.60;;
64959;SDS011;51487;52.266;10.542;2022-12-29T03:35:49;3.05;;;2.17;;
64959;SDS011;51487;52.266;10.542;2022-12-29T03:38:19;1.90;;;1.70;;
64959;SDS011;51487;52.266;10.542;2022-12-29T03:40:55;2.97;;;1.40;;
64959;SDS011;51487;52.266;10.542;2022-12-29T03:43:25;1.70;;;1.60;;
64959;SDS011;51487;52.266;10.542;2022-12-29T03:45:53;2.53;;;1.42;;
64959;SDS011;51487;52.266;10.542;2022-12-29T03:48:18;1.67;;;1.55;;
64959;SDS011;51487;52.266;10.542;2022-12-29T03:50:44;2.60;;;1.70;;
64959;SDS011;51487;52.266;10.542;2022-12-29T03:53:09;1.60;;;1.50;;
64959;SDS011;51487;52.266;10.542;2022-12-29T03:55:35;2.40;;;1.40;;
64959;SDS011;51487;52.266;10.542;2022-12-29T03:58:00;1.90;;;1.58;;
64959;SDS011;51487;52.266;10.542;2022-12-29T04:00:26;2.35;;;1.70;;
64959;SDS011;51487;52.266;10.542;2022-12-29T04:02:51;2.38;;;1.58;;
64959;SDS011;51487;52.266;10.542;2022-12-29T04:05:17;4.25;;;1.73;;
64959;SDS011;51487;52.266;10.542;2022-12-29T04:07:42;1.75;;;1.55;;
64959;SDS011;51487;52.266;10.542;2022-12-29T04:10:08;2.55;;;1.58;;
64959;SDS011;51487;52.266;10.542;2022-12-29T04:12:34;3.17;;;1.55;;
64959;SDS011;51487;52.266;10.542;2022-12-29T04:14:59;2.10;;;1.40;;
64959;SDS011;51487;52.266;10.542;2022-12-29T04:17:25;2.47;;;1.70;;
64959;SDS011;51487;52.266;10.542;2022-12-29T04:19:50;3.30;;;1.60;;
64959;SDS011;51487;52.266;10.542;2022-12-29T04:22:16;2.10;;;1.63;;
64959;SDS011;51487;52.266;10.542;2022-12-29T04:24:41;1.63;;;1.50;;
64959;SDS011;51487;52.266;10.542;2022-12-29T04:27:07;3.15;;;1.40;;
64959;SDS011;51487;52.266;10.542;2022-12-29T04:29:32;1.75;;;1.60;;
64959;SDS011;51487;52.266;10.542;2022-12-29T04:31:58;1.67;;;1.40;;
64959;SDS011;51487;52.266;10.542;2022-12-29T04:34:23;1.50;;;1.40;;
64959;SDS011;51487;52.266;10.542;2022-12-29T04:36:49;2.10;;;1.60;;
64959;SDS011;51487;52.266;10.542;2022-12-29T04:39:14;2.13;;;1.80;;
64959;SDS011;51487;52.266;10.542;2022-12-29T04:41:40;3.22;;;1.48;;
64959;SDS011;51487;52.266;10.542;2022-12-29T04:44:05;1.73;;;1.40;;
64959;SDS011;51487;52.266;10.542;2022-12-29T04:46:31;2.53;;;1.50;;
64959;SDS011;51487;52.266;10.542;2022-12-29T04:48:56;3.67;;;1.50;;
64959;SDS011;51487;52.266;10.542;2022-12-29T04:51:22;2.70;;;1.60;;
64959;SDS011;51487;52.266;10.542;2022-12-29T04:53:47;2.95;;;1.58;;
64959;SDS011;51487;52.266;10.542;2022-12-29T04:56:12;1.63;;;1.52;;
64959;SDS011;51487;52.266;10.542;2022-12-29T04:58:38;2.05;;;1.40;;
64959;SDS011;51487;52.266;10.542;2022-12-29T05:01:04;2.10;;;1.58;;
64959;SDS011;51487;52.266;10.542;2022-12-29T05:03:29;1.77;;;1.40;;
64959;SDS011;51487;52.266;10.542;2022-12-29T05:05:55;2.45;;;1.50;;
64959;SDS011;51487;52.266;10.542;2022-12-29T05:08:22;1.67;;;1.40;;
64959;SDS011;51487;52.266;10.542;2022-12-29T05:10:51;1.73;;;1.40;;
64959;SDS011;51487;52.266;10.542;2022-12-29T05:13:17;2.70;;;1.70;;
64959;SDS011;51487;52.266;10.542;2022-12-29T05:15:49;1.77;;;1.50;;
64959;SDS011;51487;52.266;10.542;2022-12-29T05:18:17;5.38;;;1.92;;
64959;SDS011;51487;52.266;10.542;2022-12-29T05:20:44;1.73;;;1.60;;
64959;SDS011;51487;52.266;10.542;2022-12-29T05:23:10;2.33;;;1.48;;
64959;SDS011;51487;52.266;10.542;2022-12-29T05:25:36;2.78;;;1.70;;
64959;SDS011;51487;52.266;10.542;2022-12-29T05:28:02;2.28;;;1.60;;
64959;SDS011;51487;52.266;10.542;2022-12-29T05:30:28;2.45;;;1.67;;
64959;SDS011;51487;52.266;10.542;2022-12-29T05:32:53;5.13;;;1.95;;
64959;SDS011;51487;52.266;10.542;2022-12-29T05:35:18;2.72;;;1.85;;
64959;SDS011;51487;52.266;10.542;2022-12-29T05:37:44;3.40;;;1.70;;
64959;SDS011;51487;52.266;10.542;2022-12-29T05:40:10;2.63;;;1.92;;
64959;SDS011;51487;52.266;10.542;2022-12-29T05:42:36;3.38;;;2.47;;
64959;SDS011;51487;52.266;10.542;2022-12-29T05:45:01;3.40;;;2.25;;
64959;SDS011;51487;52.266;10.542;2022-12-29T05:47:27;3.08;;;2.05;;
64959;SDS011;51487;52.266;10.542;2022-12-29T05:49:53;2.45;;;1.60;;
64959;SDS011;51487;52.266;10.542;2022-12-29T05:52:18;1.50;;;1.40;;
64959;SDS011;51487;52.266;10.542;2022-12-29T05:54:44;1.67;;;1.58;;
64959;SDS011;51487;52.266;10.542;2022-12-29T05:57:09;1.42;;;1.10;;
64959;SDS011;51487;52.266;10.542;2022-12-29T05:59:35;1.83;;;1.25;;
64959;SDS011;51487;52.266;10.542;2022-12-29T06:02:00;1.33;;;1.20;;
64959;SDS011;51487;52.266;10.542;2022-12-29T06:04:26;1.65;;;1.33;;
64959;SDS011;51487;52.266;10.542;2022-12-29T06:06:51;1.40;;;1.10;;
64959;SDS011;51487;52.266;10.542;2022-12-29T06:09:17;1.67;;;1.30;;
64959;SDS011;51487;52.266;10.542;2022-12-29T06:11:42;2.63;;;1.23;;
64959;SDS011;51487;52.266;10.542;2022-12-29T06:14:08;1.60;;;1.50;;
64959;SDS011;51487;52.266;10.542;2022-12-29T06:16:33;1.85;;;1.40;;
64959;SDS011;51487;52.266;10.542;2022-12-29T06:18:59;1.98;;;1.30;;
64959;SDS011;51487;52.266;10.542;2022-12-29T06:21:25;5.72;;;1.85;;
64959;SDS011;51487;52.266;10.542;2022-12-29T06:23:50;1.40;;;1.30;;
64959;SDS011;51487;52.266;10.542;2022-12-29T06:26:16;1.20;;;1.10;;
64959;SDS011;51487;52.266;10.542;2022-12-29T06:28:41;2.33;;;1.27;;
64959;SDS011;51487;52.266;10.542;2022-12-29T06:31:08;2.40;;;1.27;;
64959;SDS011;51487;52.266;10.542;2022-12-29T06:33:35;1.40;;;1.10;;
64959;SDS011;51487;52.266;10.542;2022-12-29T06:36:00;1.15;;;1.10;;
64959;SDS011;51487;52.266;10.542;2022-12-29T06:38:26;2.58;;;1.30;;
64959;SDS011;51487;52.266;10.542;2022-12-29T06:40:51;1.27;;;1.20;;
64959;SDS011;51487;52.266;10.542;2022-12-29T06:43:17;1.15;;;1.05;;
64959;SDS011;51487;52.266;10.542;2022-12-29T06:45:42;1.73;;;1.08;;
64959;SDS011;51487;52.266;10.542;2022-12-29T06:48:08;1.55;;;1.10;;
64959;SDS011;51487;52.266;10.542;2022-12-29T06:50:34;1.08;;;1.00;;
64959;SDS011;51487;52.266;10.542;2022-12-29T06:53:00;1.10;;;1.00;;
64959;SDS011;51487;52.266;10.542;2022-12-29T06:55:25;2.10;;;1.20;;
64959;SDS011;51487;52.266;10.542;2022-12-29T06:57:53;1.30;;;1.20;;
64959;SDS011;51487;52.266;10.542;2022-12-29T07:00:21;1.27;;;1.00;;
64959;SDS011;51487;52.266;10.542;2022-12-29T07:02:47;1.20;;;1.10;;
64959;SDS011;51487;52.266;10.542;2022-12-29T07:05:12;0.95;;;0.95;;
64959;SDS011;51487;52.266;10.542;2022-12-29T07:07:38;1.67;;;0.98;;
64959;SDS011;51487;52.266;10.542;2022-12-29T07:10:04;1.10;;;1.00;;
64959;SDS011;51487;52.266;10.542;2022-12-29T07:12:30;1.08;;;1.00;;
64959;SDS011;51487;52.266;10.542;2022-12-29T07:14:55;1.08;;;0.98;;
64959;SDS011;51487;52.266;10.542;2022-12-29T07:17:21;1.10;;;1.00;;
64959;SDS011;51487;52.266;10.542;2022-12-29T07:19:47;2.20;;;0.90;;
64959;SDS011;51487;52.266;10.542;2022-12-29T07:22:12;1.35;;;1.00;;
64959;SDS011;51487;52.266;10.542;2022-12-29T07:24:37;0.95;;;0.95;;
64959;SDS011;51487;52.266;10.542;2022-12-29T07:27:03;0.90;;;0.90;;
64959;SDS011;51487;52.266;10.542;2022-12-29T07:29:29;0.90;;;0.90;;
64959;SDS011;51487;52.266;10.542;2022-12-29T07:31:54;0.90;;;0.90;;
64959;SDS011;51487;52.266;10.542;2022-12-29T07:34:20;0.90;;;0.90;;
64959;SDS011;51487;52.266;10.542;2022-12-29T07:36:46;2.00;;;1.17;;
64959;SDS011;51487;52.266;10.542;2022-12-29T07:39:12;0.98;;;0.98;;
64959;SDS011;51487;52.266;10.542;2022-12-29T07:41:38;1.23;;;1.13;;
64959;SDS011;51487;52.266;10.542;2022-12-29T07:44:03;0.95;;;0.93;;
64959;SDS011;51487;52.266;10.542;2022-12-29T07:46:29;1.02;;;1.02;;
64959;SDS011;51487;52.266;10.542;2022-12-29T07:48:54;1.40;;;1.10;;
64959;SDS011;51487;52.266;10.542;2022-12-29T07:51:20;1.45;;;1.00;;
64959;SDS011;51487;52.266;10.542;2022-12-29T07:53:45;0.90;;;0.90;;
64959;SDS011;51487;52.266;10.542;2022-12-29T07:56:11;1.02;;;1.00;;
64959;SDS011;51487;52.266;10.542;2022-12-29T07:58:36;1.10;;;0.93;;
64959;SDS011;51487;52.266;10.542;2022-12-29T08:01:02;1.10;;;1.10;;
64959;SDS011;51487;52.266;10.542;2022-12-29T08:03:27;0.90;;;0.90;;
64959;SDS011;51487;52.266;10.542;2022-12-29T08:05:53;1.30;;;1.20;;
64959;SDS011;51487;52.266;10.542;2022-12-29T08:08:18;1.10;;;1.10;;
64959;SDS011;51487;52.266;10.542;2022-12-29T08:10:45;3.95;;;1.40;;
64959;SDS011;51487;52.266;10.542;2022-12-29T08:13:10;1.58;;;1.27;;
64959;SDS011;51487;52.266;10.542;2022-12-29T08:15:37;3.90;;;1.48;;
64959;SDS011;51487;52.266;10.542;2022-12-29T08:18:03;1.65;;;1.40;;
64959;SDS011;51487;52.266;10.542;2022-12-29T08:20:29;3.58;;;1.40;;
64959;SDS011;51487;52.266;10.542;2022-12-29T08:22:54;2.65;;;1.60;;
64959;SDS011;51487;52.266;10.542;2022-12-29T08:25:20;1.23;;;1.10;;
64959;SDS011;51487;52.266;10.542;2022-12-29T08:27:46;1.27;;;1.00;;
64959;SDS011;51487;52.266;10.542;2022-12-29T08:30:11;1.00;;;1.00;;
64959;SDS011;51487;52.266;10.542;2022-12-29T08:32:37;1.10;;;1.00;;
64959;SDS011;51487;52.266;10.542;2022-12-29T08:35:03;0.90;;;0.90;;
64959;SDS011;51487;52.266;10.542;2022-12-29T08:37:29;1.00;;;1.00;;
64959;SDS011;51487;52.266;10.542;2022-12-29T08:39:54;1.00;;;1.00;;
64959;SDS011;51487;52.266;10.542;2022-12-29T08:42:20;1.20;;;1.10;;
64959;SDS011;51487;52.266;10.542;2022-12-29T08:44:45;2.15;;;1.20;;
64959;SDS011;51487;52.266;10.542;2022-12-29T08:47:11;1.35;;;1.10;;
64959;SDS011;51487;52.266;10.542;2022-12-29T08:49:37;1.80;;;1.05;;
64959;SDS011;51487;52.266;10.542;2022-12-29T08:52:03;1.67;;;1.52;;
64959;SDS011;51487;52.266;10.542;2022-12-29T08:54:29;2.55;;;1.30;;
64959;SDS011;51487;52.266;10.542;2022-12-29T08:56:54;2.25;;;1.33;;
64959;SDS011;51487;52.266;10.542;2022-12-29T08:59:20;2.83;;;1.50;;
64959;SDS011;51487;52.266;10.542;2022-12-29T09:01:46;3.10;;;1.55;;
64959;SDS011;51487;52.266;10.542;2022-12-29T09:04:11;2.40;;;1.55;;
64959;SDS011;51487;52.266;10.542;2022-12-29T09:06:37;2.70;;;1.40;;
64959;SDS011;51487;52.266;10.542;2022-12-29T09:09:02;1.85;;;1.30;;
64959;SDS011;51487;52.266;10.542;2022-12-29T09:11:28;2.35;;;1.30;;
64959;SDS011;51487;52.266;10.542;2022-12-29T09:13:53;2.63;;;1.60;;
64959;SDS011;51487;52.266;10.542;2022-12-29T09:16:21;3.72;;;2.15;;
64959;SDS011;51487;52.266;10.542;2022-12-29T09:18:48;2.53;;;1.60;;
64959;SDS011;51487;52.266;10.542;2022-12-29T09:21:14;3.15;;;1.83;;
64959;SDS011;51487;52.266;10.542;2022-12-29T09:23:40;2.20;;;1.70;;
64959;SDS011;51487;52.266;10.542;2022-12-29T09:26:06;2.85;;;1.70;;
64959;SDS011;51487;52.266;10.542;2022-12-29T09:28:32;4.50;;;2.13;;
64959;SDS011;51487;52.266;10.542;2022-12-29T09:30:58;3.10;;;1.70;;
64959;SDS011;51487;52.266;10.542;2022-12-29T09:33:24;3.15;;;1.67;;
64959;SDS011;51487;52.266;10.542;2022-12-29T09:35:51;4.43;;;1.67;;
64959;SDS011;51487;52.266;10.542;2022-12-29T09:38:20;2.78;;;1.40;;
64959;SDS011;51487;52.266;10.542;2022-12-29T09:40:50;1.50;;;1.20;;
64959;SDS011;51487;52.266;10.542;2022-12-29T09:48:51;2.10;;;1.40;;
64959;SDS011;51487;52.266;10.542;2022-12-29T09:51:31;1.98;;;1.38;;
64959;SDS011;51487;52.266;10.542;2022-12-29T09:54:14;1.25;;;1.15;;
64959;SDS011;51487;52.266;10.542;2022-12-29T09:56:52;1.90;;;1.05;;
64959;SDS011;51487;52.266;10.542;2022-12-29T09:59:19;1.17;;;1.08;;
64959;SDS011;51487;52.266;10.542;2022-12-29T10:04:39;1.50;;;1.40;;
64959;SDS011;51487;52.266;10.542;2022-12-29T10:10:38;1.30;;;1.20;;
64959;SDS011;51487;52.266;10.542;2022-12-29T10:13:28;1.50;;;1.20;;
64959;SDS011;51487;52.266;10.542;2022-12-29T10:22:10;1.15;;;1.08;;
64959;SDS011;51487;52.266;10.542;2022-12-29T10:24:31;1.00;;;1.00;;
64959;SDS011;51487;52.266;10.542;2022-12-29T10:27:02;2.80;;;1.20;;
64959;SDS011;51487;52.266;10.542;2022-12-29T10:29:35;2.35;;;1.10;;
64959;SDS011;51487;52.266;10.542;2022-12-29T10:32:42;3.22;;;1.20;;
64959;SDS011;51487;52.266;10.542;2022-12-29T10:46:22;1.08;;;1.05;;
64959;SDS011;51487;52.266;10.542;2022-12-29T10:48:53;3.45;;;1.20;;
64959;SDS011;51487;52.266;10.542;2022-12-29T10:51:28;4.63;;;1.17;;
64959;SDS011;51487;52.266;10.542;2022-12-29T10:56:39;2.88;;;1.23;;
64959;SDS011;51487;52.266;10.542;2022-12-29T10:59:13;2.42;;;1.40;;
64959;SDS011;51487;52.266;10.542;2022-12-29T11:07:19;3.03;;;1.67;;
64959;SDS011;51487;52.266;10.542;2022-12-29T11:09:46;3.17;;;1.50;;
64959;SDS011;51487;52.266;10.542;2022-12-29T11:12:20;2.00;;;1.40;;
64959;SDS011;51487;52.266;10.542;2022-12-29T11:15:12;4.40;;;1.42;;
64959;SDS011;51487;52.266;10.542;2022-12-29T11:17:47;2.33;;;1.70;;
64959;SDS011;51487;52.266;10.542;2022-12-29T11:20:58;4.70;;;1.90;;
64959;SDS011;51487;52.266;10.542;2022-12-29T11:26:17;3.38;;;1.30;;
64959;SDS011;51487;52.266;10.542;2022-12-29T11:28:49;2.05;;;1.05;;
64959;SDS011;51487;52.266;10.542;2022-12-29T11:31:53;1.35;;;1.25;;
64959;SDS011;51487;52.266;10.542;2022-12-29T11:34:26;1.95;;;1.20;;
64959;SDS011;51487;52.266;10.542;2022-12-29T11:37:10;2.70;;;1.42;;
64959;SDS011;51487;52.266;10.542;2022-12-29T11:40:15;3.35;;;1.55;;
64959;SDS011;51487;52.266;10.542;2022-12-29T11:42:49;2.58;;;1.48;;
64959;SDS011;51487;52.266;10.542;2022-12-29T11:45:28;2.00;;;1.30;;
64959;SDS011;51487;52.266;10.542;2022-12-29T11:47:59;2.40;;;1.58;;
64959;SDS011;51487;52.266;10.542;2022-12-29T11:50:33;1.95;;;1.25;;
64959;SDS011;51487;52.266;10.542;2022-12-29T11:55:51;1.38;;;1.27;;
64959;SDS011;51487;52.266;10.542;2022-12-29T11:58:31;1.80;;;1.17;;
64959;SDS011;51487;52.266;10.542;2022-12-29T12:04:07;1.40;;;0.90;;
64959;SDS011;51487;52.266;10.542;2022-12-29T12:06:43;3.80;;;1.30;;
64959;SDS011;51487;52.266;10.542;2022-12-29T12:09:38;2.53;;;1.30;;
64959;SDS011;51487;52.266;10.542;2022-12-29T12:12:24;2.80;;;1.13;;
64959;SDS011;51487;52.266;10.542;2022-12-29T12:14:58;2.95;;;1.85;;
64959;SDS011;51487;52.266;10.542;2022-12-29T12:26:08;1.58;;;1.20;;
64959;SDS011;51487;52.266;10.542;2022-12-29T12:28:42;1.70;;;1.10;;
64959;SDS011;51487;52.266;10.542;2022-12-29T12:34:29;2.80;;;1.45;;
64959;SDS011;51487;52.266;10.542;2022-12-29T12:40:34;1.25;;;1.08;;
64959;SDS011;51487;52.266;10.542;2022-12-29T13:00:34;2.90;;;1.30;;
64959;SDS011;51487;52.266;10.542;2022-12-29T13:06:39;4.03;;;1.35;;
64959;SDS011;51487;52.266;10.542;2022-12-29T13:27:59;2.65;;;1.40;;
64959;SDS011;51487;52.266;10.542;2022-12-29T13:30:34;2.42;;;1.35;;
64959;SDS011;51487;52.266;10.542;2022-12-29T13:33:37;2.20;;;1.30;;
64959;SDS011;51487;52.266;10.542;2022-12-29T13:36:34;1.10;;;1.00;;
64959;SDS011;51487;52.266;10.542;2022-12-29T13:39:10;4.18;;;1.27;;
64959;SDS011;51487;52.266;10.542;2022-12-29T13:41:51;2.55;;;1.17;;
64959;SDS011;51487;52.266;10.542;2022-12-29T13:44:21;2.63;;;1.30;;
64959;SDS011;51487;52.266;10.542;2022-12-29T13:46:53;2.60;;;1.38;;
64959;SDS011;51487;52.266;10.542;2022-12-29T13:49:21;2.45;;;1.52;;
64959;SDS011;51487;52.266;10.542;2022-12-29T13:52:13;5.15;;;1.80;;
64959;SDS011;51487;52.266;10.542;2022-12-29T13:54:57;3.38;;;1.30;;
64959;SDS011;51487;52.266;10.542;2022-12-29T13:58:13;4.93;;;1.33;;
64959;SDS011;51487;52.266;10.542;2022-12-29T14:00:51;4.38;;;1.33;;
64959;SDS011;51487;52.266;10.542;2022-12-29T14:06:21;3.75;;;1.42;;
64959;SDS011;51487;52.266;10.542;2022-12-29T14:08:55;2.53;;;1.30;;
64959;SDS011;51487;52.266;10.542;2022-12-29T14:11:30;3.72;;;1.23;;
64959;SDS011;51487;52.266;10.542;2022-12-29T14:13:59;4.13;;;2.38;;
64959;SDS011;51487;52.266;10.542;2022-12-29T14:17:01;2.85;;;1.30;;
64959;SDS011;51487;52.266;10.542;2022-12-29T14:19:38;3.28;;;1.33;;
64959;SDS011;51487;52.266;10.542;2022-12-29T14:22:08;2.85;;;1.20;;
64959;SDS011;51487;52.266;10.542;2022-12-29T14:24:45;3.67;;;1.40;;
64959;SDS011;51487;52.266;10.542;2022-12-29T14:32:50;3.50;;;1.40;;
64959;SDS011;51487;52.266;10.542;2022-12-29T14:34:57;3.13;;;1.30;;
64959;SDS011;51487;52.266;10.542;2022-12-29T14:37:27;5.50;;;1.58;;
64959;SDS011;51487;52.266;10.542;2022-12-29T14:40:03;6.28;;;1.63;;
64959;SDS011;51487;52.266;10.542;2022-12-29T14:42:32;4.20;;;1.70;;
64959;SDS011;51487;52.266;10.542;2022-12-29T14:45:00;2.15;;;1.23;;
64959;SDS011;51487;52.266;10.542;2022-12-29T14:47:34;5.93;;;1.30;;
64959;SDS011;51487;52.266;10.542;2022-12-29T14:50:45;2.70;;;1.10;;
64959;SDS011;51487;52.266;10.542;2022-12-29T14:56:28;2.90;;;1.80;;
64959;SDS011;51487;52.266;10.542;2022-12-29T14:59:01;3.50;;;1.23;;
64959;SDS011;51487;52.266;10.542;2022-12-29T15:06:45;3.80;;;1.90;;
64959;SDS011;51487;52.266;10.542;2022-12-29T15:12:04;4.63;;;1.50;;
64959;SDS011;51487;52.266;10.542;2022-12-29T15:14:52;3.47;;;1.40;;
64959;SDS011;51487;52.266;10.542;2022-12-29T15:17:28;3.72;;;1.50;;
64959;SDS011;51487;52.266;10.542;2022-12-29T15:20:49;5.00;;;1.55;;
64959;SDS011;51487;52.266;10.542;2022-12-29T15:25:59;5.20;;;1.58;;
64959;SDS011;51487;52.266;10.542;2022-12-29T15:28:36;4.43;;;1.52;;
64959;SDS011;51487;52.266;10.542;2022-12-29T15:33:49;5.35;;;1.50;;
64959;SDS011;51487;52.266;10.542;2022-12-29T15:36:27;7.28;;;2.13;;
64959;SDS011;51487;52.266;10.542;2022-12-29T15:39:01;4.18;;;1.40;;
64959;SDS011;51487;52.266;10.542;2022-12-29T15:41:54;3.83;;;1.58;;
64959;SDS011;51487;52.266;10.542;2022-12-29T15:47:05;5.95;;;1.60;;
64959;SDS011;51487;52.266;10.542;2022-12-29T15:49:45;2.83;;;1.50;;
64959;SDS011;51487;52.266;10.542;2022-12-29T15:52:19;7.90;;;1.70;;
64959;SDS011;51487;52.266;10.542;2022-12-29T15:54:50;2.13;;;1.10;;
64959;SDS011;51487;52.266;10.542;2022-12-29T15:57:22;6.32;;;1.75;;
64959;SDS011;51487;52.266;10.542;2022-12-29T15:59:51;2.30;;;1.30;;
64959;SDS011;51487;52.266;10.542;2022-12-29T16:02:18;3.10;;;1.10;;
64959;SDS011;51487;52.266;10.542;2022-12-29T16:04:47;3.00;;;1.40;;
64959;SDS011;51487;52.266;10.542;2022-12-29T16:07:24;1.58;;;1.20;;
64959;SDS011;51487;52.266;10.542;2022-12-29T16:09:56;4.00;;;1.30;;
64959;SDS011;51487;52.266;10.542;2022-12-29T16:12:26;7.27;;;1.80;;
64959;SDS011;51487;52.266;10.542;2022-12-29T16:15:12;3.00;;;1.38;;
64959;SDS011;51487;52.266;10.542;2022-12-29T16:17:46;5.25;;;1.40;;
64959;SDS011;51487;52.266;10.542;2022-12-29T16:20:17;2.72;;;1.30;;
64959;SDS011;51487;52.266;10.542;2022-12-29T16:22:49;2.45;;;1.38;;
64959;SDS011;51487;52.266;10.542;2022-12-29T16:25:33;5.53;;;1.50;;
64959;SDS011;51487;52.266;10.542;2022-12-29T16:28:02;2.83;;;1.42;;
64959;SDS011;51487;52.266;10.542;2022-12-29T16:30:43;3.50;;;1.52;;
64959;SDS011;51487;52.266;10.542;2022-12-29T16:36:23;3.58;;;1.75;;
64959;SDS011;51487;52.266;10.542;2022-12-29T16:39:16;7.55;;;1.50;;
64959;SDS011;51487;52.266;10.542;2022-12-29T16:41:49;4.78;;;1.40;;
64959;SDS011;51487;52.266;10.542;2022-12-29T16:44:19;3.42;;;1.80;;
64959;SDS011;51487;52.266;10.542;2022-12-29T16:49:23;3.20;;;1.73;;
64959;SDS011;51487;52.266;10.542;2022-12-29T16:51:50;5.63;;;2.03;;
64959;SDS011;51487;52.266;10.542;2022-12-29T16:54:21;5.35;;;1.58;;
64959;SDS011;51487;52.266;10.542;2022-12-29T16:57:00;5.28;;;1.75;;
64959;SDS011;51487;52.266;10.542;2022-12-29T16:59:31;3.00;;;1.45;;
64959;SDS011;51487;52.266;10.542;2022-12-29T17:02:00;3.78;;;1.40;;
64959;SDS011;51487;52.266;10.542;2022-12-29T17:04:38;3.15;;;1.30;;
64959;SDS011;51487;52.266;10.542;2022-12-29T17:07:08;2.80;;;1.42;;
64959;SDS011;51487;52.266;10.542;2022-12-29T17:09:42;2.85;;;1.35;;
64959;SDS011;51487;52.266;10.542;2022-12-29T17:12:07;2.78;;;1.60;;
64959;SDS011;51487;52.266;10.542;2022-12-29T17:14:44;3.13;;;1.60;;
64959;SDS011;51487;52.266;10.542;2022-12-29T17:22:45;6.80;;;1.80;;
64959;SDS011;51487;52.266;10.542;2022-12-29T17:25:16;4.25;;;1.67;;
64959;SDS011;51487;52.266;10.542;2022-12-29T17:27:53;3.13;;;1.60;;
64959;SDS011;51487;52.266;10.542;2022-12-29T17:30:25;4.15;;;1.70;;
64959;SDS011;51487;52.266;10.542;2022-12-29T17:32:57;5.68;;;1.67;;
64959;SDS011;51487;52.266;10.542;2022-12-29T17:35:29;2.88;;;1.55;;
64959;SDS011;51487;52.266;10.542;2022-12-29T17:37:55;3.67;;;1.50;;
64959;SDS011;51487;52.266;10.542;2022-12-29T17:40:21;4.18;;;1.60;;
64959;SDS011;51487;52.266;10.542;2022-12-29T17:42:53;3.35;;;1.42;;
64959;SDS011;51487;52.266;10.542;2022-12-29T17:45:25;7.05;;;1.80;;
64959;SDS011;51487;52.266;10.542;2022-12-29T17:47:54;7.10;;;1.95;;
64959;SDS011;51487;52.266;10.542;2022-12-29T17:50:22;3.70;;;1.70;;
64959;SDS011;51487;52.266;10.542;2022-12-29T17:52:54;5.45;;;1.60;;
64959;SDS011;51487;52.266;10.542;2022-12-29T17:55:23;6.65;;;1.90;;
64959;SDS011;51487;52.266;10.542;2022-12-29T17:57:49;3.13;;;1.75;;